KTAD

Details ICAO KTAD
Name PERRY STOKES
Region United States
Timezone America/Denver (UTC-7.0)
Plans Departing 3
Arriving 7
Stats Elevation 5,762 ft / 1,756 m (AMSL)
Location 37.259929° -104.339984°
Runways 2
Magnetic Variation 7.677° E
Sunrise 2017-12-12 14:03:38 UTC / 2017-12-12 07:03:38 Local
Sunset 2017-12-12 23:41:41 UTC / 2017-12-12 16:41:41 Local
Advertisement - Login to hide

Runways

ID Width Length Bearing (true) Bearing (mag) Surface Threshold Offset Overrun Length
03 100 ft / 30 m 5,500 ft / 1,676 m 44.79° 37.11° Asphalt 0 ft / 0 m 0 ft / 0 m
09 100 ft / 30 m 5,486 ft / 1,672 m 106.17° 98.49° Gravel 0 ft / 0 m 0 ft / 0 m
21 100 ft / 30 m 5,500 ft / 1,676 m 224.80° 217.12° Asphalt 0 ft / 0 m 0 ft / 0 m
27 100 ft / 30 m 5,486 ft / 1,672 m 286.18° 278.50° Gravel 0 ft / 0 m 0 ft / 0 m

Map

Weather


0- 5 10 15 20 25 30 35+ Temperature / ° C

Clouds and Precipitation
Forecast for 2017-12-12 12:00 UTC. Updated 2 hours ago

Ground ~20,000 ft ~40,000 ft Winds

METAR

KTAD 120854Z AUTO 25005KT 10SM CLR M04/M14 A3048 RMK AO2 SLP310 T10391144 56002

TAF

Not found

Frequencies

Recorded 119.02 MHz ASOS
Unicom 122.80 MHz CTAF/UNICOM
Warning: Do not use this data for real-world aviation or navigation. No guarantee of current accuracy is given.